createdAt,value
2019-02-16T00:02:28.230Z,96.40
2019-02-16T00:04:59.645Z,96.30
2019-02-16T00:07:30.957Z,96.40
2019-02-16T00:10:02.219Z,96.20
2019-02-16T00:12:34.614Z,96.40
2019-02-16T00:15:07.833Z,96.70
2019-02-16T00:17:40.214Z,96.30
2019-02-16T00:20:11.613Z,96.30
2019-02-16T00:22:42.894Z,96.30
2019-02-16T00:25:14.516Z,96.00
2019-02-16T00:27:45.860Z,95.80
2019-02-16T00:30:17.125Z,96.00
2019-02-16T00:32:48.533Z,96.20
2019-02-16T00:35:19.821Z,96.00
2019-02-16T00:37:51.140Z,96.10
2019-02-16T00:40:22.408Z,96.10
2019-02-16T00:42:53.720Z,96.00
2019-02-16T00:45:28.161Z,95.70
2019-02-16T00:47:59.474Z,94.60
2019-02-16T00:50:30.752Z,94.20
2019-02-16T00:53:07.181Z,94.60
2019-02-16T00:55:38.457Z,94.30
2019-02-16T00:58:09.883Z,94.30
2019-02-16T01:00:41.142Z,93.80
2019-02-16T01:03:12.443Z,94.40
2019-02-16T01:05:43.883Z,94.30
2019-02-16T01:08:16.510Z,94.50
2019-02-16T01:10:47.775Z,94.30
2019-02-16T01:13:19.177Z,94.50
2019-02-16T01:15:50.461Z,94.40
2019-02-16T01:18:21.791Z,94.70
2019-02-16T01:20:53.068Z,94.30
2019-02-16T01:23:25.787Z,94.60
2019-02-16T01:25:58.279Z,95.00
2019-02-16T01:28:30.801Z,94.70
2019-02-16T01:31:04.229Z,94.20
2019-02-16T01:33:35.489Z,94.30
2019-02-16T01:36:06.809Z,94.70
2019-02-16T01:38:38.126Z,94.20
2019-02-16T01:41:09.390Z,94.30
2019-02-16T01:43:40.704Z,94.00
2019-02-16T01:46:11.993Z,94.40
2019-02-16T01:48:43.330Z,94.20
2019-02-16T01:51:14.647Z,94.60
2019-02-16T01:53:45.970Z,94.50
2019-02-16T01:56:17.217Z,95.10
2019-02-16T01:58:50.205Z,95.40
2019-02-16T02:01:22.530Z,94.60
2019-02-16T02:03:53.771Z,94.30
2019-02-16T02:06:25.050Z,94.30
2019-02-16T02:08:56.349Z,94.00
2019-02-16T02:11:28.646Z,94.50
2019-02-16T02:14:00.842Z,94.10
2019-02-16T02:16:32.092Z,94.20
2019-02-16T02:19:03.414Z,94.80
2019-02-16T02:21:40.887Z,94.80
2019-02-16T02:24:07.570Z,94.50
2019-02-16T02:26:38.838Z,94.40
2019-02-16T02:29:10.270Z,94.60
2019-02-16T02:31:41.578Z,94.90
2019-02-16T02:34:12.970Z,95.10
2019-02-16T02:36:45.802Z,94.90
2019-02-16T02:39:17.219Z,94.90
2019-02-16T02:41:48.505Z,95.00
2019-02-16T02:44:19.810Z,94.30
2019-02-16T02:46:51.379Z,94.50
2019-02-16T02:49:22.898Z,94.20
2019-02-16T02:51:54.178Z,94.60
2019-02-16T02:54:26.169Z,94.80
2019-02-16T02:56:58.910Z,94.40
2019-02-16T02:59:30.324Z,94.30
2019-02-16T03:02:03.073Z,94.40
2019-02-16T03:04:34.411Z,95.00
2019-02-16T03:07:05.837Z,95.60
2019-02-16T03:09:37.082Z,95.60
2019-02-16T03:12:08.350Z,95.00
2019-02-16T03:14:42.471Z,94.50
2019-02-16T03:17:13.855Z,93.80
2019-02-16T03:19:45.148Z,94.10
2019-02-16T03:22:20.576Z,94.30
2019-02-16T03:24:51.903Z,94.40
2019-02-16T03:27:29.171Z,93.80
2019-02-16T03:30:06.368Z,94.10
2019-02-16T03:32:47.267Z,94.20
2019-02-16T03:35:38.889Z,93.90
2019-02-16T03:38:18.545Z,93.70
2019-02-16T03:40:50.150Z,94.00
2019-02-16T03:43:21.443Z,94.50
2019-02-16T03:45:52.758Z,93.80
2019-02-16T03:48:24.139Z,93.90
2019-02-16T03:50:56.160Z,94.00
2019-02-16T03:53:27.962Z,93.80
2019-02-16T03:55:59.309Z,93.90
2019-02-16T03:58:30.582Z,94.00
2019-02-16T04:01:02.947Z,94.20
2019-02-16T04:03:35.523Z,94.50
2019-02-16T04:06:06.842Z,94.30
2019-02-16T04:08:39.327Z,94.20
2019-02-16T04:11:10.649Z,94.10
2019-02-16T04:13:42.009Z,94.10
2019-02-16T04:16:13.517Z,93.90
2019-02-16T04:18:44.982Z,93.80
2019-02-16T04:21:16.450Z,93.70
2019-02-16T04:23:47.618Z,93.90
2019-02-16T04:26:18.944Z,94.30
2019-02-16T04:28:50.238Z,94.00
2019-02-16T04:31:21.548Z,93.90
2019-02-16T04:33:54.214Z,93.70
2019-02-16T04:36:25.527Z,93.80
2019-02-16T04:38:56.899Z,93.90
2019-02-16T04:41:28.323Z,93.80
2019-02-16T04:43:59.655Z,93.40
2019-02-16T04:46:31.068Z,93.70
2019-02-16T04:49:03.752Z,94.00
2019-02-16T04:51:36.355Z,93.90
2019-02-16T04:54:07.670Z,93.80
2019-02-16T04:56:40.982Z,94.10
2019-02-16T04:59:16.693Z,94.10
2019-02-16T05:01:48.118Z,94.50
2019-02-16T05:04:19.402Z,93.80
2019-02-16T05:06:50.682Z,93.60
2019-02-16T05:09:22.081Z,93.50
2019-02-16T05:11:53.487Z,93.90
2019-02-16T05:14:24.777Z,93.50
2019-02-16T05:16:56.275Z,93.30
2019-02-16T05:19:27.655Z,93.30
2019-02-16T05:21:59.027Z,93.20
2019-02-16T05:24:30.261Z,93.10
2019-02-16T05:27:02.082Z,93.40
2019-02-16T05:29:33.497Z,93.40
2019-02-16T05:32:04.851Z,93.80
2019-02-16T05:34:36.209Z,93.40
2019-02-16T05:37:09.514Z,93.90
2019-02-16T05:39:40.922Z,94.10
2019-02-16T05:42:12.343Z,94.00
2019-02-16T05:44:43.653Z,94.20
2019-02-16T05:47:15.081Z,94.60
2019-02-16T05:49:46.459Z,93.90
2019-02-16T05:52:17.796Z,94.00
2019-02-16T05:54:49.171Z,94.50
2019-02-16T05:57:20.611Z,94.60
2019-02-16T05:59:53.419Z,95.20
2019-02-16T06:02:24.752Z,95.20
2019-02-16T06:04:56.048Z,95.60
2019-02-16T06:07:27.343Z,97.00
2019-02-16T06:09:58.686Z,96.20
2019-02-16T06:12:31.045Z,96.00
2019-02-16T06:15:02.399Z,96.30
2019-02-16T06:17:33.760Z,96.50
2019-02-16T06:20:07.130Z,96.40
2019-02-16T06:22:38.537Z,96.90
2019-02-16T06:25:10.037Z,97.00
2019-02-16T06:27:43.461Z,97.40
2019-02-16T06:30:14.746Z,97.40
2019-02-16T06:32:46.159Z,97.00
2019-02-16T06:35:21.770Z,96.90
2019-02-16T06:37:53.199Z,97.70
2019-02-16T06:40:24.482Z,97.30
2019-02-16T06:42:55.825Z,97.40
2019-02-16T06:45:27.214Z,97.30
2019-02-16T06:47:58.509Z,96.80
2019-02-16T06:50:36.743Z,96.60
2019-02-16T06:53:02.868Z,96.60
2019-02-16T06:55:35.698Z,97.10
2019-02-16T06:58:07.118Z,96.50
2019-02-16T07:00:38.409Z,96.40
2019-02-16T07:03:09.926Z,97.20
2019-02-16T07:05:41.444Z,97.10
2019-02-16T07:08:12.742Z,97.90
2019-02-16T07:10:44.106Z,98.20
2019-02-16T07:13:16.107Z,97.90
2019-02-16T07:15:48.959Z,98.80
2019-02-16T07:18:22.755Z,98.40
2019-02-16T07:20:54.063Z,98.00
2019-02-16T07:23:25.476Z,97.60
2019-02-16T07:25:59.909Z,97.50
2019-02-16T07:28:34.914Z,97.60
2019-02-16T07:31:06.719Z,97.60
2019-02-16T07:33:39.429Z,97.50
2019-02-16T07:36:10.725Z,98.50
2019-02-16T07:38:42.291Z,98.00
2019-02-16T07:41:13.573Z,98.20
2019-02-16T07:43:52.111Z,97.30
2019-02-16T07:46:27.674Z,97.10
2019-02-16T07:49:09.902Z,97.30
2019-02-16T07:51:45.628Z,96.80
2019-02-16T07:54:21.178Z,96.80
2019-02-16T07:56:54.041Z,96.80
2019-02-16T07:59:26.951Z,96.30
2019-02-16T08:01:59.794Z,96.70
2019-02-16T08:04:35.230Z,96.00
2019-02-16T08:07:16.772Z,95.70
2019-02-16T08:09:49.606Z,96.50
2019-02-16T08:12:22.939Z,96.30
2019-02-16T08:14:55.918Z,96.70
2019-02-16T08:17:31.459Z,96.90
2019-02-16T08:20:10.331Z,96.70
2019-02-16T08:22:43.251Z,96.90
2019-02-16T08:25:22.369Z,96.50
2019-02-16T08:28:00.972Z,96.90
2019-02-16T08:30:33.922Z,96.60
2019-02-16T08:33:08.156Z,96.70
2019-02-16T08:35:44.064Z,96.80
2019-02-16T08:38:25.906Z,96.60
2019-02-16T08:41:01.737Z,96.40
2019-02-16T08:43:40.712Z,96.60
2019-02-16T08:46:31.483Z,96.30
2019-02-16T08:49:04.407Z,96.40
2019-02-16T08:51:37.294Z,96.20
2019-02-16T08:54:10.306Z,96.40
2019-02-16T08:56:45.778Z,96.20
2019-02-16T08:59:18.627Z,96.20
2019-02-16T09:01:54.180Z,96.30
2019-02-16T09:04:35.575Z,96.10
2019-02-16T09:07:11.188Z,96.10
2019-02-16T09:09:45.427Z,96.60
2019-02-16T09:12:22.884Z,96.30
2019-02-16T09:15:13.803Z,96.10
2019-02-16T09:17:49.834Z,96.20
2019-02-16T09:20:27.247Z,96.60
2019-02-16T09:23:03.570Z,96.40
2019-02-16T09:25:36.804Z,96.60
2019-02-16T09:28:10.705Z,96.00
2019-02-16T09:30:51.465Z,96.20
2019-02-16T09:33:39.189Z,96.10
2019-02-16T09:36:14.027Z,96.00
2019-02-16T09:38:48.549Z,95.70
2019-02-16T09:41:29.723Z,95.90
2019-02-16T09:44:09.198Z,95.90
2019-02-16T09:47:01.079Z,96.10
2019-02-16T09:49:55.478Z,96.60
2019-02-16T09:52:53.149Z,96.40
2019-02-16T09:55:33.773Z,96.60
2019-02-16T09:58:09.698Z,96.30
2019-02-16T10:00:42.698Z,96.00
2019-02-16T10:03:24.341Z,96.60
2019-02-16T10:06:13.478Z,96.60
2019-02-16T10:08:55.247Z,96.40
2019-02-16T10:11:28.223Z,96.30
2019-02-16T10:14:06.957Z,96.30
2019-02-16T10:16:42.710Z,96.10
2019-02-16T10:19:20.046Z,96.20
2019-02-16T10:21:55.312Z,96.00
2019-02-16T10:24:34.208Z,96.10
2019-02-16T10:27:22.158Z,96.10
2019-02-16T10:30:00.742Z,95.60
2019-02-16T10:32:42.818Z,95.70
2019-02-16T10:35:27.609Z,95.70
2019-02-16T10:38:00.590Z,95.20
2019-02-16T10:40:51.354Z,95.40
2019-02-16T10:43:24.207Z,95.30
2019-02-16T10:46:02.839Z,95.30
2019-02-16T10:48:35.636Z,95.40
2019-02-16T10:51:17.316Z,95.60
2019-02-16T10:54:06.274Z,95.50
2019-02-16T10:56:55.243Z,95.50
2019-02-16T10:59:28.109Z,95.20
2019-02-16T11:02:01.030Z,95.40
2019-02-16T11:04:38.483Z,95.10
2019-02-16T11:07:11.567Z,95.20
2019-02-16T11:09:47.142Z,94.90
2019-02-16T11:12:20.051Z,95.00
2019-02-16T11:15:13.193Z,95.00
2019-02-16T11:17:51.914Z,94.40
2019-02-16T11:20:24.777Z,94.40
2019-02-16T11:23:29.223Z,93.90
2019-02-16T11:26:04.930Z,93.80
2019-02-16T11:28:43.707Z,93.80
2019-02-16T11:31:28.511Z,93.30
2019-02-16T11:34:19.751Z,93.00
2019-02-16T11:36:52.610Z,92.80
2019-02-16T11:39:25.432Z,92.60
2019-02-16T11:41:58.369Z,92.50
2019-02-16T11:44:36.978Z,92.10
2019-02-16T11:47:15.914Z,92.10
2019-02-16T11:49:50.899Z,91.80
2019-02-16T11:52:35.372Z,91.50
2019-02-16T11:55:25.163Z,91.60
2019-02-16T11:58:00.742Z,91.20
2019-02-16T12:00:36.213Z,91.00
2019-02-16T12:03:09.051Z,90.90
2019-02-16T12:05:41.901Z,90.80
2019-02-16T12:08:23.776Z,90.40
2019-02-16T12:11:13.209Z,90.10
2019-02-16T12:13:58.358Z,90.30
2019-02-16T12:16:39.690Z,90.30
2019-02-16T12:19:15.474Z,90.00
2019-02-16T12:21:48.371Z,89.20
2019-02-16T12:24:21.318Z,89.40
2019-02-16T12:27:00.383Z,89.00
2019-02-16T12:29:33.559Z,88.40
2019-02-16T12:32:12.532Z,87.80
2019-02-16T12:35:01.976Z,87.90
2019-02-16T12:37:37.632Z,87.50
2019-02-16T12:40:10.629Z,85.70
2019-02-16T12:42:50.602Z,84.40
2019-02-16T12:45:23.571Z,83.90
2019-02-16T12:48:05.754Z,84.30
2019-02-16T12:50:47.607Z,80.80
2019-02-16T12:53:26.260Z,80.10
2019-02-16T12:56:09.042Z,81.50
2019-02-16T12:58:44.902Z,80.50
2019-02-16T13:01:36.845Z,79.80
2019-02-16T13:04:27.819Z,78.70
2019-02-16T13:07:19.135Z,77.60
2019-02-16T13:09:57.971Z,76.50
2019-02-16T13:12:35.409Z,75.10
2019-02-16T13:15:22.923Z,73.80
2019-02-16T13:18:04.675Z,69.00
2019-02-16T13:20:34.979Z,72.80
2019-02-16T13:23:13.363Z,68.70
2019-02-16T13:25:52.768Z,69.30
2019-02-16T13:28:42.850Z,69.00
2019-02-16T13:31:07.656Z,65.70
2019-02-16T13:33:43.319Z,66.10
2019-02-16T13:36:32.295Z,67.40
2019-02-16T13:39:14.211Z,66.40
2019-02-16T13:41:54.204Z,65.60
2019-02-16T13:44:28.548Z,60.90
2019-02-16T13:47:10.446Z,62.00
2019-02-16T13:49:46.402Z,64.00
2019-02-16T13:52:37.615Z,62.10
2019-02-16T13:55:13.479Z,61.60
2019-02-16T13:57:46.293Z,57.60
2019-02-16T14:00:25.262Z,58.30
2019-02-16T14:02:58.099Z,57.90
2019-02-16T14:05:34.611Z,58.60
2019-02-16T14:08:16.606Z,60.10
2019-02-16T14:10:52.817Z,58.70
2019-02-16T14:13:33.294Z,60.40
2019-02-16T14:16:06.253Z,58.40
2019-02-16T14:18:38.069Z,57.80
2019-02-16T14:21:11.258Z,57.20
2019-02-16T14:23:44.776Z,58.30
2019-02-16T14:26:16.084Z,57.80
2019-02-16T14:28:48.549Z,58.70
2019-02-16T14:31:28.089Z,58.40
2019-02-16T14:33:52.996Z,58.40
2019-02-16T14:36:24.346Z,58.10
2019-02-16T14:39:03.390Z,58.50
2019-02-16T14:41:34.634Z,63.90
2019-02-16T14:44:05.967Z,66.40
2019-02-16T14:46:37.470Z,68.70
2019-02-16T14:49:08.685Z,69.50
2019-02-16T14:51:41.008Z,70.80
2019-02-16T14:54:12.690Z,71.20
2019-02-16T14:56:44.414Z,73.90
2019-02-16T14:59:15.722Z,74.50
2019-02-16T15:01:48.607Z,77.60
2019-02-16T15:04:40.916Z,76.90
2019-02-16T15:07:09.499Z,77.70
2019-02-16T15:09:40.827Z,79.30
2019-02-16T15:12:13.065Z,80.00
2019-02-16T15:14:44.227Z,80.50
2019-02-16T15:17:15.485Z,80.60
2019-02-16T15:19:46.743Z,81.40
2019-02-16T15:22:18.027Z,80.70
2019-02-16T15:24:49.254Z,81.80
2019-02-16T15:27:20.664Z,82.10
2019-02-16T15:29:51.865Z,82.40
2019-02-16T15:32:23.049Z,83.50
2019-02-16T15:34:54.342Z,82.70
2019-02-16T15:37:25.636Z,83.10
2019-02-16T15:39:56.897Z,83.30
2019-02-16T15:42:28.306Z,83.60
2019-02-16T15:44:59.686Z,83.80
2019-02-16T15:47:31.048Z,84.80
2019-02-16T15:50:02.469Z,85.10
2019-02-16T15:52:34.349Z,86.10
2019-02-16T15:55:07.527Z,87.60
2019-02-16T15:57:38.824Z,86.50
2019-02-16T16:00:16.600Z,86.90
2019-02-16T16:02:48.099Z,87.20
2019-02-16T16:05:19.398Z,87.90
2019-02-16T16:07:52.156Z,88.50
2019-02-16T16:10:30.849Z,87.40
2019-02-16T16:13:03.720Z,88.10
2019-02-16T16:15:42.280Z,87.40
2019-02-16T16:18:20.305Z,88.40
2019-02-16T16:20:59.307Z,89.70
2019-02-16T16:23:38.031Z,90.00
2019-02-16T16:26:27.077Z,89.60
2019-02-16T16:29:18.324Z,88.90
2019-02-16T16:31:51.253Z,90.30
2019-02-16T16:34:24.335Z,90.30
2019-02-16T16:37:08.609Z,89.70
2019-02-16T16:39:43.982Z,89.80
2019-02-16T16:42:28.721Z,89.70
2019-02-16T16:45:19.421Z,89.60
2019-02-16T16:47:55.678Z,89.50
2019-02-16T16:50:31.509Z,89.70
2019-02-16T16:53:07.483Z,90.50
2019-02-16T16:55:43.347Z,90.20
2019-02-16T16:58:25.404Z,90.00
2019-02-16T17:01:10.357Z,90.10
2019-02-16T17:03:43.279Z,90.30
2019-02-16T17:06:20.169Z,89.70
2019-02-16T17:09:09.577Z,90.00
2019-02-16T17:11:54.637Z,90.20
2019-02-16T17:14:39.147Z,89.40
2019-02-16T17:17:20.771Z,90.00
2019-02-16T17:19:53.693Z,90.30
2019-02-16T17:22:43.101Z,90.40
2019-02-16T17:25:32.122Z,90.50
2019-02-16T17:28:07.818Z,91.00
2019-02-16T17:30:40.623Z,91.20
2019-02-16T17:33:31.502Z,91.30
2019-02-16T17:36:05.676Z,90.80
2019-02-16T17:38:38.676Z,90.80
2019-02-16T17:41:17.738Z,91.30
2019-02-16T17:43:50.641Z,91.40
2019-02-16T17:46:29.333Z,91.10
2019-02-16T17:49:08.270Z,90.80
2019-02-16T17:51:59.380Z,90.40
2019-02-16T17:54:35.002Z,90.50
2019-02-16T17:57:07.749Z,90.60
2019-02-16T17:59:57.262Z,91.60
2019-02-16T18:02:32.699Z,90.80
2019-02-16T18:05:15.413Z,90.90
2019-02-16T18:08:04.779Z,91.20
2019-02-16T18:10:40.472Z,91.40
2019-02-16T18:13:22.420Z,91.00
2019-02-16T18:16:04.386Z,91.40
2019-02-16T18:18:43.299Z,91.10
2019-02-16T18:21:18.780Z,90.90
2019-02-16T18:23:54.629Z,90.90
2019-02-16T18:26:27.922Z,91.10
2019-02-16T18:29:00.811Z,91.20
2019-02-16T18:31:33.790Z,91.00
2019-02-16T18:34:06.691Z,90.90
2019-02-16T18:36:48.812Z,91.70
2019-02-16T18:39:21.753Z,91.40
2019-02-16T18:41:55.770Z,91.40
2019-02-16T18:44:46.926Z,91.40
2019-02-16T18:47:23.447Z,91.30
2019-02-16T18:50:08.442Z,91.20
2019-02-16T18:52:42.559Z,92.30
2019-02-16T18:55:17.651Z,92.30
2019-02-16T18:57:53.624Z,91.90
2019-02-16T19:00:38.412Z,91.50
2019-02-16T19:03:29.793Z,91.50
2019-02-16T19:06:02.668Z,91.80
2019-02-16T19:08:35.714Z,91.50
2019-02-16T19:11:25.728Z,92.20
2019-02-16T19:14:16.857Z,92.20
2019-02-16T19:17:07.684Z,92.70
2019-02-16T19:19:44.714Z,92.00
2019-02-16T19:22:38.607Z,91.60
2019-02-16T19:25:11.934Z,91.60
2019-02-16T19:27:50.529Z,92.20
2019-02-16T19:30:38.184Z,91.20
2019-02-16T19:33:17.168Z,91.50
2019-02-16T19:35:55.796Z,91.90
2019-02-16T19:38:28.747Z,91.60
2019-02-16T19:41:04.447Z,91.80
2019-02-16T19:43:52.257Z,91.50
2019-02-16T19:46:24.950Z,92.20
2019-02-16T19:49:05.187Z,91.80
2019-02-16T19:51:40.810Z,91.70
2019-02-16T19:54:19.283Z,92.10
2019-02-16T19:56:58.493Z,91.60
2019-02-16T19:59:31.250Z,92.10
2019-02-16T20:02:20.091Z,91.50
2019-02-16T20:04:53.003Z,91.90
2019-02-16T20:07:34.653Z,92.50
2019-02-16T20:10:09.770Z,92.50
2019-02-16T20:12:43.809Z,92.10
2019-02-16T20:15:31.584Z,91.70
2019-02-16T20:18:13.132Z,91.80
2019-02-16T20:20:54.871Z,92.30
2019-02-16T20:23:31.299Z,92.10
2019-02-16T20:26:20.548Z,92.80
2019-02-16T20:28:56.559Z,92.20
2019-02-16T20:31:32.292Z,92.40
2019-02-16T20:34:13.159Z,92.50
2019-02-16T20:36:46.696Z,92.60
2019-02-16T20:39:31.861Z,92.40
2019-02-16T20:42:18.209Z,92.70
2019-02-16T20:44:51.145Z,92.60
2019-02-16T20:47:23.971Z,93.10
2019-02-16T20:49:59.738Z,92.80
2019-02-16T20:52:48.592Z,92.70
2019-02-16T20:55:24.541Z,92.70
2019-02-16T20:57:57.497Z,92.60
2019-02-16T21:00:30.336Z,92.40
2019-02-16T21:03:06.399Z,92.60
2019-02-16T21:05:57.082Z,92.30
2019-02-16T21:08:36.135Z,92.40
2019-02-16T21:11:26.390Z,92.60
2019-02-16T21:14:06.592Z,92.70
2019-02-16T21:16:55.752Z,92.90
2019-02-16T21:19:28.634Z,92.60
2019-02-16T21:22:01.361Z,93.10
2019-02-16T21:24:50.749Z,92.70
2019-02-16T21:27:23.514Z,92.70
2019-02-16T21:30:08.474Z,93.30
2019-02-16T21:32:41.446Z,93.30
2019-02-16T21:35:23.296Z,93.00
2019-02-16T21:37:56.272Z,93.00
2019-02-16T21:40:32.183Z,93.10
2019-02-16T21:43:17.043Z,93.10
2019-02-16T21:45:55.976Z,92.90
2019-02-16T21:48:40.826Z,93.00
2019-02-16T21:51:42.682Z,92.90
2019-02-16T21:54:18.427Z,93.10
2019-02-16T21:56:51.285Z,92.80
2019-02-16T21:59:40.484Z,93.20
2019-02-16T22:02:13.224Z,93.20
2019-02-16T22:04:48.988Z,93.40
2019-02-16T22:07:33.880Z,92.70
2019-02-16T22:10:10.603Z,93.30
2019-02-16T22:12:59.606Z,93.30
2019-02-16T22:15:31.878Z,93.10
2019-02-16T22:18:04.192Z,93.00
2019-02-16T22:20:35.590Z,93.30
2019-02-16T22:23:06.840Z,92.80
2019-02-16T22:25:38.261Z,92.60
2019-02-16T22:28:18.254Z,92.60
2019-02-16T22:30:42.364Z,93.20
2019-02-16T22:33:13.935Z,93.10
2019-02-16T22:35:45.254Z,93.50
2019-02-16T22:38:16.534Z,93.40
2019-02-16T22:40:47.791Z,93.50
2019-02-16T22:43:18.947Z,93.50
2019-02-16T22:45:51.629Z,92.80
2019-02-16T22:48:22.805Z,93.60
2019-02-16T22:50:54.964Z,93.20
2019-02-16T22:53:26.202Z,93.30
2019-02-16T22:55:57.505Z,93.30
2019-02-16T22:58:29.374Z,93.10
2019-02-16T23:01:00.862Z,92.80
2019-02-16T23:03:33.744Z,92.70
2019-02-16T23:06:05.408Z,92.70
2019-02-16T23:08:38.118Z,92.90
2019-02-16T23:11:09.454Z,93.20
2019-02-16T23:13:40.736Z,92.80
2019-02-16T23:16:13.799Z,92.90
2019-02-16T23:18:45.081Z,93.00
2019-02-16T23:21:17.871Z,93.20
2019-02-16T23:23:49.272Z,93.10
2019-02-16T23:26:20.593Z,92.80
2019-02-16T23:28:52.008Z,92.70
2019-02-16T23:31:23.292Z,92.90
2019-02-16T23:33:54.691Z,93.30
2019-02-16T23:36:26.044Z,92.70
2019-02-16T23:38:57.430Z,92.80
2019-02-16T23:41:30.179Z,92.90
2019-02-16T23:44:01.473Z,93.10
2019-02-16T23:46:32.890Z,93.20
2019-02-16T23:49:04.283Z,93.10
2019-02-16T23:51:35.581Z,92.90
2019-02-16T23:54:06.931Z,92.90
2019-02-16T23:56:38.283Z,93.40
2019-02-16T23:59:09.525Z,93.80
